Aktualne dane pomiarowe

Uwaga, wersja testowa! Automatyczne pobieranie danych za pomocą narzędzi lub skryptów to umożliwiających jest zabronione.

Dane meteo z obszaru Polski uzyskane na podstawie depesz SYNOP pobieranych co godzinę z NWS. Najedź myszką na symbol przedstawiony w tabeli, aby uzyskać informacje co do jego znaczenia. Prosimy pamiętać, że to testowa wersja strony, która jeszcze nie jest ukończona. Stworzono również jest krótki FAQ dotyczący korzystania z tej podstrony Anomalie temperatury w chwili obecnej odniesione są do okresu referencyjnego 1951-2016. Okres ten będzie później zmieniony na 1981-2010. Kliknij ikonę aby pobrać plik CSV. Kliknij ikonę aby wygenerować mapę synoptyczną dla danego terminu.

Wybierz Datę:    

        

Włodawa (12497)

Dane terminowe dla wybranej stacji. Kliknij datę, aby otrzymać dane z tego terminu dla wszystkich stacji.

TemperaturaZachmurzenieWiatrCiśnienieOpadyPogoda
 Data t td wb tx tn tg rh  Nt Nl Cl Cm Ch ws wd g1 g2 wx mslp ppp ch 24h 12h t ww ww w1 w2  
2019-06-30 23:00:00 22.1 14.5 17.2--- 6220.0wx-5wx--51012.2 991.5 -0.4---------
2019-06-30 22:00:00 22.1 13.4 16.6--- 5820.0wx-4wx--41012.5 991.8 -0.1---------
2019-06-30 21:00:00 21.2 13.6 16.3--- 6220.0wx-4wx--41012.6 991.9 -0.2---------
2019-06-30 20:00:00 21.4 13.6 16.4--- 6120.0wx-4wx---1012.6 991.9 -0.5---------
2019-06-30 19:00:00 24.1 12.7 17.1--- 4920.0wx-wx2wx--21012.4 991.9 -0.8---------
2019-06-30 18:00:00 28.6 11.6 18.3 33.2 21.3- 3520.0wx-wx3wx-1031012.3 992.1 -1.0- 0.012------
2019-06-30 17:00:00 31.6 10.3 18.9--- 2720.0wx-4wx--41012.4 992.4 -1.1---------
2019-06-30 16:00:00 32.7 10.1 19.2--- 2520.0wx-4wx--41012.7 992.7 -1.2---------
2019-06-30 15:00:00 32.9 9.7 19.0--- 2420.0wx-5wx-1051013.0 993.1 -1.1---------
2019-06-30 14:00:00 32.8 8.9 18.7--- 2320.0wx-5wx-1051013.5 993.5 -1.2---------
2019-06-30 13:00:00 32.1 9.0 18.5--- 2420.0wx-7wx--71013.9 993.9 -1.1---------
2019-06-30 12:00:00 31.1 9.9 18.5--- 2720.0wx-6wx-1261014.3 994.2 -1.0- 0.06------
2019-06-30 11:00:00 30.7 10.6 18.7--- 2920.0wx-6wx--61014.8 994.7 -0.4---------
2019-06-30 10:00:00 29.0 9.7 17.6--- 3020.0wx-6wx--61015.2 995.0 -0.2---------
2019-06-30 09:00:00 27.6 9.9 17.2--- 3320.0wx-wx7wx-1271015.5 995.2 0.0---------
2019-06-30 08:00:00 26.1 10.7 16.9--- 3820.0wx-wxwx6wx--61015.5 995.1 0.0---------
2019-06-30 07:00:00 24.3 10.9 16.3--- 4320.0wx-wxwx5wx--51015.8 995.2 0.1---------
2019-06-30 06:00:00 21.4 11.1 15.2 22.1 12.8 12 5220.0wx-wxwx4wx--41016.0 995.2 0.3- 0.012----- 8.0
2019-06-30 05:00:00 19.5 10.8 14.2--- 5720.0wxwxwxwxwx5wx--51016.0 995.1 0.5---------
2019-06-30 04:00:00 17.6 9.5 12.7--- 5920.0wx-wxwx4wx---1016.2 995.1 0.2---------
2019-06-30 03:00:00 15.6 9.7 11.9--- 6820.0wxwxwxwxwx2wx--21016.1 994.9 -0.1---------
2019-06-30 02:00:00 15.6 10.1 12.2--- 7020.0wxwxwxwxwx3wx--31015.8 994.6 -0.8---------
2019-06-30 01:00:00 13.0 10.4 11.3--- 8420.0wxwxwxwxwx2wx--21016.3 994.9 -0.6---------
2019-06-30 00:00:00 13.4 10.7 11.6--- 8420.0wx-3wx---1016.4 995.0 -0.9---------
2019-06-29 23:00:00 14.0 11.2 12.1--- 8320.0wx-3wx---1016.7 995.4 -0.6---------
2019-06-29 22:00:00 14.8 11.4 12.5--- 8020.0wx-3wx---1016.8 995.5 -0.7---------
2019-06-29 21:00:00 15.6 11.6 13.0--- 7720.0wx-2wx---1017.1 995.9 -0.1---------
2019-06-29 20:00:00 17.0 12.1 13.8--- 7320.0wx-wx2wx--21017.1 996.0 0.2---------
2019-06-29 19:00:00 20.2 12.2 15.2--- 6020.0wx-wx1wx--11017.1 996.2 0.5---------
2019-06-29 18:00:00 22.1 11.5 15.7 24.3 14.8- 5120.0wxwxwxwx1wx-1311016.7 996.0 0.4--12wx-w1--
2019-06-29 17:00:00 22.8 10.6 15.5--- 4620.0wxwxwxwx2wx---1016.5 995.8 -0.3---------
2019-06-29 16:00:00 23.2 9.9 15.4--- 4320.0wxwxwxwx5wx---1016.4 995.7 -0.2---------
2019-06-29 15:00:00 23.5 9.8 15.5--- 4220.0wxwxwxwx6wx-1361016.2 995.6 -0.8---wx-w1--
2019-06-29 14:00:00 22.3 10.1 15.1--- 4620.0wxwxwxwxwx6wx---1016.8 996.1 -0.4---wx---
2019-06-29 13:00:00 22.7 10.2 15.3--- 4520.0wxwxwx6wx11--1016.6 995.9 -1.1---------
2019-06-29 12:00:00 23.9 9.8 15.6--- 4120.0wxwxwxwx7wx121371017.0 996.4 -1.1- 0.06------
2019-06-29 11:00:00 23.0 10.1 15.4--- 4420.0wxwxwxwx7wx-1271017.2 996.5 -1.3---------
2019-06-29 10:00:00 21.9 9.1 14.5--- 4420.0wxwxwxwxwx6wx111261017.8 997.0 -0.9---------
2019-06-29 09:00:00 19.6 8.0 13.0--- 4720.0wxwxwxwxwx7wx-1371018.5 997.5 -0.8---------
2019-06-29 08:00:00 17.7 9.6 12.8--- 5920.0wxwxwxwx5wx--51018.9 997.8 -0.4---------
2019-06-29 07:00:00 17.3 7.6 11.7--- 5320.0wxwxwxwxwx7wx121271019.0 997.9 -0.4---------
2019-06-29 06:00:00 14.8 7.3 10.4 19.0 10.1 9 6120.0wx-wxwx5wx--51019.6 998.3 0.3- 0.012----- 12.3
2019-06-29 05:00:00 13.1 8.0 10.0--- 7120.0wx-wxwx5wx--51019.7 998.2 0.3---------
2019-06-29 04:00:00 11.0 7.7 8.9--- 8020.0wx-wxwx4wx--41019.9 998.3 0.7---------
2019-06-29 03:00:00 10.3 6.8 8.1--- 7920.0wx-wx4wx--41019.7 998.0 0.5---------
2019-06-29 02:00:00 10.1 6.4 7.8--- 7820.0wx-wx4wx--41019.6 997.9 0.4---------
2019-06-29 01:00:00 11.0 6.1 8.1--- 7220.0wx-wx4wx--41019.2 997.6 0.2---------
2019-06-29 00:00:00 11.3 5.8 8.1--- 6920.0wx-4wx--41019.1 997.5 0.4- 0.06------
1.3 ms

 

Print Friendly, PDF & Email